sensor_id;sensor_type;location;lat;lon;timestamp;pressure;altitude;pressure_sealevel;temperature;humidity
71149;BME280;59072;42.144;25.200;2023-12-29T00:00:37;100775.41;;;1.60;88.52
71149;BME280;59072;42.144;25.200;2023-12-29T00:03:03;100749.00;;;1.52;87.83
71149;BME280;59072;42.144;25.200;2023-12-29T00:05:28;100775.06;;;1.16;90.89
71149;BME280;59072;42.144;25.200;2023-12-29T00:07:53;100758.34;;;1.37;90.09
71149;BME280;59072;42.144;25.200;2023-12-29T00:10:19;100751.28;;;1.37;90.53
71149;BME280;59072;42.144;25.200;2023-12-29T00:12:44;100742.16;;;1.22;91.48
71149;BME280;59072;42.144;25.200;2023-12-29T00:15:10;100773.69;;;1.32;93.22
71149;BME280;59072;42.144;25.200;2023-12-29T00:17:35;100774.97;;;1.65;91.60
71149;BME280;59072;42.144;25.200;2023-12-29T00:20:04;100769.88;;;1.64;92.13
71149;BME280;59072;42.144;25.200;2023-12-29T00:22:29;100744.53;;;1.72;90.53
71149;BME280;59072;42.144;25.200;2023-12-29T00:24:55;100752.13;;;2.03;89.08
71149;BME280;59072;42.144;25.200;2023-12-29T00:27:20;100787.16;;;2.04;89.89
71149;BME280;59072;42.144;25.200;2023-12-29T00:29:46;100788.31;;;1.44;88.07
71149;BME280;59072;42.144;25.200;2023-12-29T00:32:11;100752.66;;;0.34;90.25
71149;BME280;59072;42.144;25.200;2023-12-29T00:34:37;100741.50;;;-0.08;91.84
71149;BME280;59072;42.144;25.200;2023-12-29T00:37:02;100768.31;;;-0.05;93.57
71149;BME280;59072;42.144;25.200;2023-12-29T00:39:28;100774.81;;;0.61;91.74
71149;BME280;59072;42.144;25.200;2023-12-29T00:41:55;100795.00;;;1.09;89.33
71149;BME280;59072;42.144;25.200;2023-12-29T00:44:23;100770.41;;;0.91;91.46
71149;BME280;59072;42.144;25.200;2023-12-29T00:46:49;100786.56;;;0.96;93.63
71149;BME280;59072;42.144;25.200;2023-12-29T00:49:15;100783.00;;;0.97;93.13
71149;BME280;59072;42.144;25.200;2023-12-29T00:51:40;100773.56;;;1.04;92.23
71149;BME280;59072;42.144;25.200;2023-12-29T00:54:08;100769.84;;;0.97;93.81
71149;BME280;59072;42.144;25.200;2023-12-29T00:56:34;100774.25;;;1.35;92.79
71149;BME280;59072;42.144;25.200;2023-12-29T00:58:59;100761.13;;;1.26;94.14
71149;BME280;59072;42.144;25.200;2023-12-29T01:01:25;100755.56;;;1.29;93.32
71149;BME280;59072;42.144;25.200;2023-12-29T01:03:50;100751.81;;;1.41;92.71
71149;BME280;59072;42.144;25.200;2023-12-29T01:06:19;100743.59;;;0.97;96.08
71149;BME280;59072;42.144;25.200;2023-12-29T01:08:45;100737.50;;;0.67;96.81
71149;BME280;59072;42.144;25.200;2023-12-29T01:11:10;100751.91;;;0.53;96.05
71149;BME280;59072;42.144;25.200;2023-12-29T01:13:36;100755.75;;;0.69;93.57
71149;BME280;59072;42.144;25.200;2023-12-29T01:16:01;100741.34;;;1.02;90.46
71149;BME280;59072;42.144;25.200;2023-12-29T01:18:26;100747.00;;;1.27;90.13
71149;BME280;59072;42.144;25.200;2023-12-29T01:20:52;100717.88;;;1.00;92.36
71149;BME280;59072;42.144;25.200;2023-12-29T01:23:17;100725.03;;;1.18;94.89
71149;BME280;59072;42.144;25.200;2023-12-29T01:25:43;100716.88;;;1.21;94.30
71149;BME280;59072;42.144;25.200;2023-12-29T01:28:08;100713.81;;;1.26;93.43
71149;BME280;59072;42.144;25.200;2023-12-29T01:30:34;100720.28;;;1.41;93.57
71149;BME280;59072;42.144;25.200;2023-12-29T01:32:59;100718.63;;;1.30;95.17
71149;BME280;59072;42.144;25.200;2023-12-29T01:35:24;100712.78;;;1.46;93.44
71149;BME280;59072;42.144;25.200;2023-12-29T01:37:50;100682.13;;;1.37;91.71
71149;BME280;59072;42.144;25.200;2023-12-29T01:40:15;100696.09;;;1.28;92.44
71149;BME280;59072;42.144;25.200;2023-12-29T01:42:41;100712.56;;;1.30;92.76
71149;BME280;59072;42.144;25.200;2023-12-29T01:45:22;100705.41;;;1.59;91.48
71149;BME280;59072;42.144;25.200;2023-12-29T01:47:49;100706.56;;;1.47;92.23
71149;BME280;59072;42.144;25.200;2023-12-29T01:50:16;100702.41;;;1.45;92.55
71149;BME280;59072;42.144;25.200;2023-12-29T01:52:42;100689.19;;;1.27;92.41
71149;BME280;59072;42.144;25.200;2023-12-29T01:55:10;100696.53;;;1.33;92.33
71149;BME280;59072;42.144;25.200;2023-12-29T01:57:37;100661.03;;;1.19;91.81
71149;BME280;59072;42.144;25.200;2023-12-29T02:00:05;100696.66;;;1.69;89.93
71149;BME280;59072;42.144;25.200;2023-12-29T02:02:31;100702.00;;;1.49;90.37
71149;BME280;59072;42.144;25.200;2023-12-29T02:04:57;100700.66;;;1.35;91.18
71149;BME280;59072;42.144;25.200;2023-12-29T02:07:23;100684.13;;;0.96;93.22
71149;BME280;59072;42.144;25.200;2023-12-29T02:09:49;100683.53;;;1.22;92.98
71149;BME280;59072;42.144;25.200;2023-12-29T02:12:17;100698.28;;;0.66;95.84
71149;BME280;59072;42.144;25.200;2023-12-29T02:14:42;100689.72;;;0.54;95.78
71149;BME280;59072;42.144;25.200;2023-12-29T02:17:16;100695.81;;;0.35;98.60
71149;BME280;59072;42.144;25.200;2023-12-29T02:19:46;100684.31;;;0.26;99.26
71149;BME280;59072;42.144;25.200;2023-12-29T02:22:14;100696.19;;;0.89;96.21
71149;BME280;59072;42.144;25.200;2023-12-29T02:24:44;100699.50;;;0.91;94.62
71149;BME280;59072;42.144;25.200;2023-12-29T02:30:10;100700.69;;;1.16;92.85
71149;BME280;59072;42.144;25.200;2023-12-29T02:32:39;100682.06;;;1.09;92.91
71149;BME280;59072;42.144;25.200;2023-12-29T02:35:07;100701.25;;;1.19;90.91
71149;BME280;59072;42.144;25.200;2023-12-29T02:37:36;100693.13;;;1.03;91.52
71149;BME280;59072;42.144;25.200;2023-12-29T02:40:03;100665.38;;;0.91;91.67
71149;BME280;59072;42.144;25.200;2023-12-29T02:42:28;100672.25;;;1.02;92.01
71149;BME280;59072;42.144;25.200;2023-12-29T02:44:54;100683.25;;;1.25;90.64
71149;BME280;59072;42.144;25.200;2023-12-29T02:47:20;100666.50;;;0.78;92.44
71149;BME280;59072;42.144;25.200;2023-12-29T02:49:46;100695.94;;;0.53;92.49
71149;BME280;59072;42.144;25.200;2023-12-29T02:52:12;100662.22;;;-0.41;96.47
71149;BME280;59072;42.144;25.200;2023-12-29T02:54:37;100657.66;;;-0.49;97.45
71149;BME280;59072;42.144;25.200;2023-12-29T02:57:02;100665.25;;;-0.46;95.97
71149;BME280;59072;42.144;25.200;2023-12-29T02:59:28;100672.28;;;-0.06;93.76
71149;BME280;59072;42.144;25.200;2023-12-29T03:01:53;100665.78;;;-0.11;93.72
71149;BME280;59072;42.144;25.200;2023-12-29T03:04:19;100678.09;;;0.17;93.03
71149;BME280;59072;42.144;25.200;2023-12-29T03:06:44;100689.16;;;0.21;93.56
71149;BME280;59072;42.144;25.200;2023-12-29T03:09:10;100655.41;;;-0.13;94.27
71149;BME280;59072;42.144;25.200;2023-12-29T03:11:35;100657.94;;;0.18;94.66
71149;BME280;59072;42.144;25.200;2023-12-29T03:14:00;100663.19;;;0.18;95.22
71149;BME280;59072;42.144;25.200;2023-12-29T03:16:26;100670.94;;;0.29;95.35
71149;BME280;59072;42.144;25.200;2023-12-29T03:18:51;100654.09;;;0.42;94.12
71149;BME280;59072;42.144;25.200;2023-12-29T03:21:17;100660.69;;;0.26;95.20
71149;BME280;59072;42.144;25.200;2023-12-29T03:23:42;100680.88;;;0.65;93.18
71149;BME280;59072;42.144;25.200;2023-12-29T03:26:07;100666.19;;;0.04;96.17
71149;BME280;59072;42.144;25.200;2023-12-29T03:28:33;100642.69;;;-0.27;99.18
71149;BME280;59072;42.144;25.200;2023-12-29T03:30:58;100656.31;;;0.27;95.63
71149;BME280;59072;42.144;25.200;2023-12-29T03:33:23;100652.16;;;0.44;94.23
71149;BME280;59072;42.144;25.200;2023-12-29T03:35:49;100650.22;;;0.55;92.06
71149;BME280;59072;42.144;25.200;2023-12-29T03:38:14;100650.75;;;0.20;92.79
71149;BME280;59072;42.144;25.200;2023-12-29T03:40:40;100619.97;;;-0.57;95.87
71149;BME280;59072;42.144;25.200;2023-12-29T03:43:05;100629.81;;;-0.81;96.77
71149;BME280;59072;42.144;25.200;2023-12-29T03:45:31;100642.13;;;-0.31;95.29
71149;BME280;59072;42.144;25.200;2023-12-29T03:47:56;100652.81;;;-0.03;94.31
71149;BME280;59072;42.144;25.200;2023-12-29T03:50:21;100627.00;;;-0.58;97.67
71149;BME280;59072;42.144;25.200;2023-12-29T03:52:47;100648.47;;;-0.33;96.95
71149;BME280;59072;42.144;25.200;2023-12-29T03:55:12;100640.91;;;-0.67;99.29
71149;BME280;59072;42.144;25.200;2023-12-29T03:57:39;100636.75;;;-0.29;96.96
71149;BME280;59072;42.144;25.200;2023-12-29T04:00:05;100648.22;;;-0.11;97.13
71149;BME280;59072;42.144;25.200;2023-12-29T04:02:31;100617.63;;;-0.01;95.37
71149;BME280;59072;42.144;25.200;2023-12-29T04:04:58;100665.94;;;0.65;92.54
71149;BME280;59072;42.144;25.200;2023-12-29T04:07:26;100646.91;;;0.53;92.29
71149;BME280;59072;42.144;25.200;2023-12-29T04:09:51;100654.09;;;0.51;92.36
71149;BME280;59072;42.144;25.200;2023-12-29T04:12:17;100659.88;;;0.55;92.32
71149;BME280;59072;42.144;25.200;2023-12-29T04:14:42;100651.88;;;0.56;91.96
71149;BME280;59072;42.144;25.200;2023-12-29T04:17:07;100644.13;;;0.55;92.23
71149;BME280;59072;42.144;25.200;2023-12-29T04:19:39;100636.81;;;0.49;91.52
71149;BME280;59072;42.144;25.200;2023-12-29T04:22:05;100630.59;;;0.01;94.95
71149;BME280;59072;42.144;25.200;2023-12-29T04:24:31;100632.00;;;0.25;94.98
71149;BME280;59072;42.144;25.200;2023-12-29T04:26:57;100597.75;;;0.26;92.40
71149;BME280;59072;42.144;25.200;2023-12-29T04:29:22;100594.56;;;0.32;92.76
71149;BME280;59072;42.144;25.200;2023-12-29T04:31:47;100639.00;;;0.63;92.62
71149;BME280;59072;42.144;25.200;2023-12-29T04:34:13;100610.16;;;0.44;93.44
71149;BME280;59072;42.144;25.200;2023-12-29T04:36:38;100613.88;;;0.51;90.83
71149;BME280;59072;42.144;25.200;2023-12-29T04:39:03;100638.44;;;0.69;90.20
71149;BME280;59072;42.144;25.200;2023-12-29T04:41:29;100634.47;;;0.46;91.49
71149;BME280;59072;42.144;25.200;2023-12-29T04:43:55;100619.56;;;0.56;92.62
71149;BME280;59072;42.144;25.200;2023-12-29T04:46:20;100621.75;;;0.70;93.61
71149;BME280;59072;42.144;25.200;2023-12-29T04:48:45;100613.44;;;0.65;93.82
71149;BME280;59072;42.144;25.200;2023-12-29T04:51:11;100600.50;;;0.54;94.38
71149;BME280;59072;42.144;25.200;2023-12-29T04:53:36;100588.88;;;0.56;94.20
71149;BME280;59072;42.144;25.200;2023-12-29T04:56:02;100598.50;;;0.75;93.24
71149;BME280;59072;42.144;25.200;2023-12-29T04:58:27;100612.63;;;0.65;94.43
71149;BME280;59072;42.144;25.200;2023-12-29T05:00:53;100627.56;;;0.15;98.43
71149;BME280;59072;42.144;25.200;2023-12-29T05:03:18;100621.88;;;-0.09;100.00
71149;BME280;59072;42.144;25.200;2023-12-29T05:05:43;100596.63;;;-0.20;100.00
71149;BME280;59072;42.144;25.200;2023-12-29T05:08:09;100619.00;;;0.04;100.00
71149;BME280;59072;42.144;25.200;2023-12-29T05:10:34;100622.72;;;0.01;100.00
71149;BME280;59072;42.144;25.200;2023-12-29T05:13:01;100607.13;;;-0.01;100.00
71149;BME280;59072;42.144;25.200;2023-12-29T05:15:27;100592.09;;;-0.18;100.00
71149;BME280;59072;42.144;25.200;2023-12-29T05:17:52;100609.59;;;-0.18;100.00
71149;BME280;59072;42.144;25.200;2023-12-29T05:20:18;100625.47;;;-0.01;100.00
71149;BME280;59072;42.144;25.200;2023-12-29T05:22:43;100614.97;;;-0.20;100.00
71149;BME280;59072;42.144;25.200;2023-12-29T05:25:09;100599.94;;;-0.18;100.00
71149;BME280;59072;42.144;25.200;2023-12-29T05:27:34;100636.81;;;0.19;100.00
71149;BME280;59072;42.144;25.200;2023-12-29T05:30:00;100603.41;;;0.12;100.00
71149;BME280;59072;42.144;25.200;2023-12-29T05:32:25;100643.03;;;0.28;100.00
71149;BME280;59072;42.144;25.200;2023-12-29T05:34:51;100644.41;;;0.32;100.00
71149;BME280;59072;42.144;25.200;2023-12-29T05:37:17;100641.09;;;0.01;100.00
71149;BME280;59072;42.144;25.200;2023-12-29T05:39:42;100638.56;;;-0.20;100.00
71149;BME280;59072;42.144;25.200;2023-12-29T05:42:08;100620.16;;;-0.39;100.00
71149;BME280;59072;42.144;25.200;2023-12-29T05:44:36;100617.06;;;-0.04;97.70
71149;BME280;59072;42.144;25.200;2023-12-29T05:47:02;100619.88;;;-0.46;99.29
71149;BME280;59072;42.144;25.200;2023-12-29T05:49:27;100611.50;;;-0.40;96.54
71149;BME280;59072;42.144;25.200;2023-12-29T05:51:52;100623.34;;;-0.36;94.96
71149;BME280;59072;42.144;25.200;2023-12-29T05:54:18;100613.28;;;-0.41;93.50
71149;BME280;59072;42.144;25.200;2023-12-29T05:56:43;100627.66;;;-0.75;95.45
71149;BME280;59072;42.144;25.200;2023-12-29T05:59:09;100596.28;;;-1.17;97.49
71149;BME280;59072;42.144;25.200;2023-12-29T06:01:34;100609.91;;;-1.45;100.00
71149;BME280;59072;42.144;25.200;2023-12-29T06:04:00;100619.66;;;-1.26;100.00
71149;BME280;59072;42.144;25.200;2023-12-29T06:06:25;100606.53;;;-1.14;100.00
71149;BME280;59072;42.144;25.200;2023-12-29T06:08:51;100612.78;;;-1.27;100.00
71149;BME280;59072;42.144;25.200;2023-12-29T06:11:16;100606.47;;;-0.93;98.52
71149;BME280;59072;42.144;25.200;2023-12-29T06:13:42;100635.47;;;-0.45;97.42
71149;BME280;59072;42.144;25.200;2023-12-29T06:16:07;100639.81;;;-0.14;95.05
71149;BME280;59072;42.144;25.200;2023-12-29T06:18:33;100638.66;;;-0.72;98.76
71149;BME280;59072;42.144;25.200;2023-12-29T06:20:59;100650.59;;;-0.58;100.00
71149;BME280;59072;42.144;25.200;2023-12-29T06:23:26;100654.03;;;-0.17;96.91
71149;BME280;59072;42.144;25.200;2023-12-29T06:25:52;100654.72;;;-0.15;97.82
71149;BME280;59072;42.144;25.200;2023-12-29T06:28:17;100660.28;;;-0.49;99.51
71149;BME280;59072;42.144;25.200;2023-12-29T06:30:42;100644.56;;;-1.10;100.00
71149;BME280;59072;42.144;25.200;2023-12-29T06:33:08;100664.78;;;-0.91;100.00
71149;BME280;59072;42.144;25.200;2023-12-29T06:35:33;100641.09;;;-0.90;100.00
71149;BME280;59072;42.144;25.200;2023-12-29T06:37:59;100648.47;;;-0.33;99.04
71149;BME280;59072;42.144;25.200;2023-12-29T06:40:24;100644.72;;;-0.41;99.01
71149;BME280;59072;42.144;25.200;2023-12-29T06:42:49;100659.84;;;-0.04;99.52
71149;BME280;59072;42.144;25.200;2023-12-29T06:45:15;100653.06;;;-0.16;99.86
71149;BME280;59072;42.144;25.200;2023-12-29T06:47:40;100614.59;;;-0.56;100.00
71149;BME280;59072;42.144;25.200;2023-12-29T06:50:06;100638.41;;;-0.28;100.00
71149;BME280;59072;42.144;25.200;2023-12-29T06:52:32;100635.91;;;-0.39;100.00
71149;BME280;59072;42.144;25.200;2023-12-29T06:55:00;100648.00;;;0.02;100.00
71149;BME280;59072;42.144;25.200;2023-12-29T06:57:25;100643.31;;;0.15;100.00
71149;BME280;59072;42.144;25.200;2023-12-29T06:59:51;100666.75;;;0.75;99.18
71149;BME280;59072;42.144;25.200;2023-12-29T07:02:16;100640.69;;;0.45;99.80
71149;BME280;59072;42.144;25.200;2023-12-29T07:04:42;100663.19;;;0.57;100.00
71149;BME280;59072;42.144;25.200;2023-12-29T07:07:08;100644.13;;;0.74;100.00
71149;BME280;59072;42.144;25.200;2023-12-29T07:09:33;100642.69;;;0.90;100.00
71149;BME280;59072;42.144;25.200;2023-12-29T07:11:59;100619.25;;;0.78;100.00
71149;BME280;59072;42.144;25.200;2023-12-29T07:14:24;100628.50;;;1.20;100.00
71149;BME280;59072;42.144;25.200;2023-12-29T07:16:49;100624.03;;;1.30;99.04
71149;BME280;59072;42.144;25.200;2023-12-29T07:19:15;100628.22;;;1.23;100.00
71149;BME280;59072;42.144;25.200;2023-12-29T07:21:40;100642.69;;;1.65;99.30
71149;BME280;59072;42.144;25.200;2023-12-29T07:24:06;100658.56;;;2.00;97.21
71149;BME280;59072;42.144;25.200;2023-12-29T07:26:34;100640.88;;;1.93;97.14
71149;BME280;59072;42.144;25.200;2023-12-29T07:28:59;100665.25;;;2.31;96.75
71149;BME280;59072;42.144;25.200;2023-12-29T07:31:25;100666.00;;;2.59;95.15
71149;BME280;59072;42.144;25.200;2023-12-29T07:33:50;100656.53;;;2.48;96.53
71149;BME280;59072;42.144;25.200;2023-12-29T07:36:16;100638.63;;;2.52;96.31
71149;BME280;59072;42.144;25.200;2023-12-29T07:38:41;100634.75;;;2.82;94.03
71149;BME280;59072;42.144;25.200;2023-12-29T07:41:08;100625.56;;;2.86;94.20
71149;BME280;59072;42.144;25.200;2023-12-29T07:43:34;100624.16;;;2.74;95.63
71149;BME280;59072;42.144;25.200;2023-12-29T07:46:01;100628.34;;;2.85;96.79
71149;BME280;59072;42.144;25.200;2023-12-29T07:48:26;100655.75;;;3.26;95.66
71149;BME280;59072;42.144;25.200;2023-12-29T07:50:52;100638.50;;;3.32;95.94
71149;BME280;59072;42.144;25.200;2023-12-29T07:53:17;100630.50;;;3.50;95.29
71149;BME280;59072;42.144;25.200;2023-12-29T07:55:43;100651.41;;;4.02;92.87
71149;BME280;59072;42.144;25.200;2023-12-29T07:58:09;100660.91;;;4.54;88.05
71149;BME280;59072;42.144;25.200;2023-12-29T08:00:35;100642.06;;;4.32;88.13
71149;BME280;59072;42.144;25.200;2023-12-29T08:03:01;100639.00;;;3.86;91.70
71149;BME280;59072;42.144;25.200;2023-12-29T08:05:26;100662.66;;;4.12;92.53
71149;BME280;59072;42.144;25.200;2023-12-29T08:07:52;100658.50;;;3.93;93.74
71149;BME280;59072;42.144;25.200;2023-12-29T08:10:17;100655.91;;;4.18;92.45
71149;BME280;59072;42.144;25.200;2023-12-29T08:12:43;100643.09;;;4.48;90.42
71149;BME280;59072;42.144;25.200;2023-12-29T08:15:08;100661.56;;;4.80;88.35
71149;BME280;59072;42.144;25.200;2023-12-29T08:17:34;100651.75;;;5.14;86.48
71149;BME280;59072;42.144;25.200;2023-12-29T08:19:59;100675.69;;;5.29;86.85
71149;BME280;59072;42.144;25.200;2023-12-29T08:22:24;100632.78;;;5.02;86.74
71149;BME280;59072;42.144;25.200;2023-12-29T08:24:50;100670.69;;;5.42;84.26
71149;BME280;59072;42.144;25.200;2023-12-29T08:27:22;100659.81;;;5.76;82.02
71149;BME280;59072;42.144;25.200;2023-12-29T08:29:48;100659.91;;;5.91;81.82
71149;BME280;59072;42.144;25.200;2023-12-29T09:10:37;100642.59;;;7.55;77.25
71149;BME280;59072;42.144;25.200;2023-12-29T09:13:04;100641.38;;;7.73;75.90
71149;BME280;59072;42.144;25.200;2023-12-29T09:15:29;100623.75;;;7.87;75.12
71149;BME280;59072;42.144;25.200;2023-12-29T09:17:55;100639.16;;;8.13;74.17
71149;BME280;59072;42.144;25.200;2023-12-29T09:20:20;100599.78;;;7.80;74.91
71149;BME280;59072;42.144;25.200;2023-12-29T09:22:45;100598.03;;;8.09;73.76
71149;BME280;59072;42.144;25.200;2023-12-29T09:25:11;100617.81;;;8.42;71.68
71149;BME280;59072;42.144;25.200;2023-12-29T09:27:36;100636.03;;;8.45;71.83
71149;BME280;59072;42.144;25.200;2023-12-29T09:30:02;100635.59;;;8.92;70.09
71149;BME280;59072;42.144;25.200;2023-12-29T09:32:29;100633.53;;;9.22;69.52
71149;BME280;59072;42.144;25.200;2023-12-29T09:34:54;100612.72;;;9.32;67.38
71149;BME280;59072;42.144;25.200;2023-12-29T09:37:19;100596.84;;;9.59;66.38
71149;BME280;59072;42.144;25.200;2023-12-29T09:39:45;100617.19;;;9.80;65.20
71149;BME280;59072;42.144;25.200;2023-12-29T09:42:16;100612.91;;;9.79;65.48
71149;BME280;59072;42.144;25.200;2023-12-29T09:44:45;100599.53;;;10.40;63.57
71149;BME280;59072;42.144;25.200;2023-12-29T09:47:15;100605.25;;;10.64;61.73
71149;BME280;59072;42.144;25.200;2023-12-29T09:49:45;100615.50;;;10.54;61.94
71149;BME280;59072;42.144;25.200;2023-12-29T09:52:12;100613.19;;;11.11;60.64
71149;BME280;59072;42.144;25.200;2023-12-29T09:54:39;100598.38;;;11.28;58.44
71149;BME280;59072;42.144;25.200;2023-12-29T09:57:05;100601.88;;;11.29;61.47
71149;BME280;59072;42.144;25.200;2023-12-29T09:59:33;100599.63;;;11.77;59.23
71149;BME280;59072;42.144;25.200;2023-12-29T10:02:02;100590.41;;;12.12;57.20
71149;BME280;59072;42.144;25.200;2023-12-29T10:04:28;100577.31;;;12.29;56.48
71149;BME280;59072;42.144;25.200;2023-12-29T10:06:54;100574.91;;;12.20;56.18
71149;BME280;59072;42.144;25.200;2023-12-29T10:09:22;100597.84;;;12.60;54.32
71149;BME280;59072;42.144;25.200;2023-12-29T10:11:50;100573.63;;;12.55;54.56
71149;BME280;59072;42.144;25.200;2023-12-29T10:14:29;100582.47;;;12.74;54.03
71149;BME280;59072;42.144;25.200;2023-12-29T10:20:25;100558.44;;;13.29;52.93
71149;BME280;59072;42.144;25.200;2023-12-29T10:23:14;100573.28;;;13.92;50.49
71149;BME280;59072;42.144;25.200;2023-12-29T10:25:42;100571.63;;;13.91;50.44
71149;BME280;59072;42.144;25.200;2023-12-29T10:28:09;100566.22;;;14.10;48.43
71149;BME280;59072;42.144;25.200;2023-12-29T10:30:35;100551.47;;;13.89;48.74
71149;BME280;59072;42.144;25.200;2023-12-29T10:33:00;100549.59;;;13.89;48.76
71149;BME280;59072;42.144;25.200;2023-12-29T10:35:26;100521.19;;;14.00;48.61
71149;BME280;59072;42.144;25.200;2023-12-29T10:37:52;100530.16;;;14.05;47.28
71149;BME280;59072;42.144;25.200;2023-12-29T10:40:18;100534.69;;;14.59;46.60
71149;BME280;59072;42.144;25.200;2023-12-29T10:42:52;100527.84;;;15.15;45.32
71149;BME280;59072;42.144;25.200;2023-12-29T10:45:18;100482.31;;;15.09;44.69
71149;BME280;59072;42.144;25.200;2023-12-29T10:47:44;100518.56;;;15.63;43.78
71149;BME280;59072;42.144;25.200;2023-12-29T10:50:09;100506.13;;;15.05;43.62
71149;BME280;59072;42.144;25.200;2023-12-29T10:52:34;100507.94;;;15.57;43.64
71149;BME280;59072;42.144;25.200;2023-12-29T10:55:07;100513.94;;;15.18;44.62
71149;BME280;59072;42.144;25.200;2023-12-29T10:57:33;100517.09;;;15.44;42.88
71149;BME280;59072;42.144;25.200;2023-12-29T10:59:59;100507.63;;;15.53;42.29
71149;BME280;59072;42.144;25.200;2023-12-29T11:02:27;100503.28;;;15.52;41.10
71149;BME280;59072;42.144;25.200;2023-12-29T11:05:03;100515.44;;;16.17;40.38
71149;BME280;59072;42.144;25.200;2023-12-29T11:07:38;100504.84;;;16.83;37.72
71149;BME280;59072;42.144;25.200;2023-12-29T11:10:05;100486.41;;;16.75;38.06
71149;BME280;59072;42.144;25.200;2023-12-29T11:12:33;100493.13;;;17.39;37.57
71149;BME280;59072;42.144;25.200;2023-12-29T11:15:00;100491.00;;;17.19;36.93
71149;BME280;59072;42.144;25.200;2023-12-29T11:17:26;100498.03;;;17.74;37.51
71149;BME280;59072;42.144;25.200;2023-12-29T11:19:54;100491.38;;;17.82;36.44
71149;BME280;59072;42.144;25.200;2023-12-29T11:22:21;100482.38;;;17.98;36.08
71149;BME280;59072;42.144;25.200;2023-12-29T11:24:48;100474.28;;;18.03;36.00
71149;BME280;59072;42.144;25.200;2023-12-29T11:27:14;100474.94;;;18.16;35.29
71149;BME280;59072;42.144;25.200;2023-12-29T11:29:44;100476.38;;;17.91;36.94
71149;BME280;59072;42.144;25.200;2023-12-29T11:32:24;100456.91;;;18.26;35.67
71149;BME280;59072;42.144;25.200;2023-12-29T11:34:57;100462.81;;;18.71;34.63
71149;BME280;59072;42.144;25.200;2023-12-29T11:40:38;100475.00;;;19.57;32.86
71149;BME280;59072;42.144;25.200;2023-12-29T11:43:09;100451.44;;;19.42;33.11
71149;BME280;59072;42.144;25.200;2023-12-29T11:45:38;100455.03;;;19.99;32.45
71149;BME280;59072;42.144;25.200;2023-12-29T11:48:04;100459.38;;;19.75;31.80
71149;BME280;59072;42.144;25.200;2023-12-29T11:50:34;100471.81;;;20.17;31.38
71149;BME280;59072;42.144;25.200;2023-12-29T11:53:02;100460.66;;;19.67;32.07
71149;BME280;59072;42.144;25.200;2023-12-29T11:55:29;100465.31;;;19.87;32.87
71149;BME280;59072;42.144;25.200;2023-12-29T11:57:55;100444.19;;;19.89;32.53
71149;BME280;59072;42.144;25.200;2023-12-29T12:00:20;100436.56;;;19.30;34.19
71149;BME280;59072;42.144;25.200;2023-12-29T12:02:46;100447.94;;;19.67;34.24
71149;BME280;59072;42.144;25.200;2023-12-29T12:05:48;100451.75;;;19.66;33.60
71149;BME280;59072;42.144;25.200;2023-12-29T12:10:53;100461.19;;;20.31;31.80
71149;BME280;59072;42.144;25.200;2023-12-29T12:13:44;100469.53;;;20.70;31.77
71149;BME280;59072;42.144;25.200;2023-12-29T12:19:10;100459.28;;;20.62;31.37
71149;BME280;59072;42.144;25.200;2023-12-29T12:21:37;100456.53;;;20.67;30.94
71149;BME280;59072;42.144;25.200;2023-12-29T12:24:04;100449.19;;;21.72;30.13
71149;BME280;59072;42.144;25.200;2023-12-29T12:26:30;100453.13;;;21.85;30.33
71149;BME280;59072;42.144;25.200;2023-12-29T12:28:56;100446.06;;;21.84;29.87
71149;BME280;59072;42.144;25.200;2023-12-29T12:31:22;100436.03;;;21.50;30.70
71149;BME280;59072;42.144;25.200;2023-12-29T12:33:58;100430.28;;;21.91;30.56
71149;BME280;59072;42.144;25.200;2023-12-29T12:36:26;100451.47;;;22.48;28.89
71149;BME280;59072;42.144;25.200;2023-12-29T12:38:56;100454.53;;;23.08;28.20
71149;BME280;59072;42.144;25.200;2023-12-29T12:41:23;100467.63;;;23.82;27.56
71149;BME280;59072;42.144;25.200;2023-12-29T12:46:33;100456.44;;;24.30;25.74
71149;BME280;59072;42.144;25.200;2023-12-29T12:48:59;100471.09;;;24.62;26.03
71149;BME280;59072;42.144;25.200;2023-12-29T12:51:25;100461.28;;;24.89;25.49
71149;BME280;59072;42.144;25.200;2023-12-29T12:53:50;100432.34;;;25.15;24.61
71149;BME280;59072;42.144;25.200;2023-12-29T12:56:17;100459.63;;;25.52;24.71
71149;BME280;59072;42.144;25.200;2023-12-29T12:58:44;100470.28;;;25.84;24.12
71149;BME280;59072;42.144;25.200;2023-12-29T13:01:09;100463.31;;;25.92;24.00
71149;BME280;59072;42.144;25.200;2023-12-29T13:03:37;100456.59;;;26.30;23.39
71149;BME280;59072;42.144;25.200;2023-12-29T13:06:04;100482.31;;;26.29;22.73
71149;BME280;59072;42.144;25.200;2023-12-29T13:08:30;100456.75;;;25.93;23.93
71149;BME280;59072;42.144;25.200;2023-12-29T13:10:56;100474.28;;;26.63;23.33
71149;BME280;59072;42.144;25.200;2023-12-29T13:13:21;100467.09;;;26.36;23.42
71149;BME280;59072;42.144;25.200;2023-12-29T13:15:51;100478.41;;;26.21;23.18
71149;BME280;59072;42.144;25.200;2023-12-29T13:18:17;100472.31;;;25.93;23.47
71149;BME280;59072;42.144;25.200;2023-12-29T13:20:46;100489.09;;;26.31;23.35
71149;BME280;59072;42.144;25.200;2023-12-29T13:23:13;100469.53;;;26.46;22.93
71149;BME280;59072;42.144;25.200;2023-12-29T13:25:39;100477.59;;;26.52;22.92
71149;BME280;59072;42.144;25.200;2023-12-29T13:28:06;100482.31;;;26.60;23.04
71149;BME280;59072;42.144;25.200;2023-12-29T13:30:32;100491.44;;;27.04;22.51
71149;BME280;59072;42.144;25.200;2023-12-29T13:32:59;100448.44;;;25.84;23.35
71149;BME280;59072;42.144;25.200;2023-12-29T13:40:43;100466.16;;;25.64;24.26